ZSHLZ FAPE-FAPE
Flight info
| Callsign | ZSHLZ |
|---|---|
| Flight time | 0h 0m |
| Altitude | 1500 |
| Route | FAPE DCT SEAVIEW DCT GAMTOOS DCT SEAVIEW DCT FAPE |
| Aircraft | UH1/L-VGD/C |
Departure
| Time | 2026-04-26 15:24 |
|---|---|
| Airport | Chief Dawid Stuurman International Airport (FAPE) |
Arrival
| Time | 2026-04-26 15:24 |
|---|---|
| Airport | Chief Dawid Stuurman International Airport (FAPE) |
| Time | Latitude | Longitude | Altitude | Speed | Heading |
|---|---|---|---|---|---|
| 2026-04-26 14:41 | -33.98002 | 25.62155 | 191 ft | 0 kts | 349° |
| 2026-04-26 14:46 | -33.97995 | 25.62161 | 192 ft | 3 kts | 353° |
| 2026-04-26 14:46 | -33.98023 | 25.62134 | 224 ft | 22 kts | 203° |
| 2026-04-26 14:46 | -33.98150 | 25.62009 | 257 ft | 39 kts | 251° |
| 2026-04-26 14:46 | -33.98344 | 25.61970 | 269 ft | 28 kts | 189° |
| 2026-04-26 14:47 | -33.98474 | 25.61726 | 242 ft | 57 kts | 237° |
| 2026-04-26 14:47 | -33.98735 | 25.61164 | 285 ft | 90 kts | 233° |
| 2026-04-26 14:47 | -33.99098 | 25.60488 | 346 ft | 98 kts | 236° |
| 2026-04-26 14:47 | -33.99551 | 25.59935 | 510 ft | 97 kts | 196° |
| 2026-04-26 14:48 | -34.00197 | 25.60124 | 768 ft | 89 kts | 171° |
| 2026-04-26 14:48 | -34.00864 | 25.60043 | 749 ft | 109 kts | 189° |
| 2026-04-26 14:48 | -34.01653 | 25.59913 | 595 ft | 118 kts | 181° |
| 2026-04-26 14:48 | -34.02455 | 25.59923 | 524 ft | 116 kts | 181° |
| 2026-04-26 14:49 | -34.03254 | 25.59837 | 481 ft | 115 kts | 176° |
| 2026-04-26 14:49 | -34.03973 | 25.60280 | 377 ft | 126 kts | 144° |
| 2026-04-26 14:49 | -34.04515 | 25.61139 | 260 ft | 139 kts | 98° |
| 2026-04-26 14:49 | -34.04265 | 25.61384 | 344 ft | 65 kts | 207° |
| 2026-04-26 14:50 | -34.04416 | 25.60989 | 53 ft | 94 kts | 355° |
| 2026-04-26 14:50 | -34.04295 | 25.60850 | 273 ft | 55 kts | 257° |
| 2026-04-26 14:50 | -34.04541 | 25.60912 | 265 ft | 96 kts | 62° |
| 2026-04-26 14:50 | -34.04250 | 25.61516 | 281 ft | 62 kts | 125° |
| 2026-04-26 14:51 | -34.04376 | 25.61443 | 182 ft | 24 kts | 245° |
| 2026-04-26 14:51 | -34.04396 | 25.61357 | 45 ft | 0 kts | 232° |
| 2026-04-26 14:51 | -34.04396 | 25.61356 | 45 ft | 0 kts | 232° |
| 2026-04-26 14:57 | -34.04314 | 25.61371 | 159 ft | 47 kts | 27° |
| 2026-04-26 14:58 | -34.03906 | 25.61754 | 209 ft | 83 kts | 14° |
| 2026-04-26 14:58 | -34.03309 | 25.61831 | 268 ft | 92 kts | 357° |
| 2026-04-26 14:58 | -34.02695 | 25.61887 | 356 ft | 89 kts | 345° |
| 2026-04-26 14:58 | -34.02066 | 25.61817 | 362 ft | 94 kts | 343° |
| 2026-04-26 14:59 | -34.01386 | 25.61810 | 386 ft | 101 kts | 359° |
| 2026-04-26 14:59 | -34.00648 | 25.61959 | 318 ft | 110 kts | 6° |
| 2026-04-26 14:59 | -34.00262 | 25.62301 | 387 ft | 105 kts | 59° |
| 2026-04-26 14:59 | -33.99987 | 25.62807 | 380 ft | 110 kts | 47° |
| 2026-04-26 15:00 | -33.99292 | 25.62588 | 401 ft | 79 kts | 275° |
| 2026-04-26 15:00 | -33.99110 | 25.61916 | 332 ft | 43 kts | 276° |
| 2026-04-26 15:00 | -33.99035 | 25.61777 | 264 ft | 20 kts | 282° |
| 2026-04-26 15:00 | -33.98893 | 25.61790 | 277 ft | 25 kts | 153° |
| 2026-04-26 15:01 | -33.98916 | 25.61649 | 285 ft | 37 kts | 239° |
| 2026-04-26 15:01 | -33.98941 | 25.61400 | 304 ft | 48 kts | 253° |
| 2026-04-26 15:01 | -33.98932 | 25.61112 | 250 ft | 23 kts | 285° |
| 2026-04-26 15:01 | -33.98827 | 25.61046 | 219 ft | 18 kts | 291° |
| 2026-04-26 15:02 | -33.98687 | 25.60938 | 242 ft | 31 kts | 351° |
| 2026-04-26 15:02 | -33.98543 | 25.61190 | 223 ft | 39 kts | 73° |
| 2026-04-26 15:02 | -33.98398 | 25.61506 | 255 ft | 48 kts | 76° |
| 2026-04-26 15:02 | -33.98194 | 25.61892 | 267 ft | 58 kts | 62° |
| 2026-04-26 15:03 | -33.98089 | 25.62220 | 239 ft | 29 kts | 72° |
| 2026-04-26 15:03 | -33.98024 | 25.62310 | 233 ft | 8 kts | 322° |
| 2026-04-26 15:03 | -33.97982 | 25.62265 | 219 ft | 9 kts | 260° |
| 2026-04-26 15:03 | -33.98036 | 25.62222 | 239 ft | 6 kts | 194° |
| 2026-04-26 15:04 | -33.98040 | 25.62221 | 220 ft | 1 kts | 202° |
| 2026-04-26 15:04 | -33.98042 | 25.62220 | 195 ft | 0 kts | 206° |
| 2026-04-26 15:04 | -33.98042 | 25.62219 | 192 ft | 0 kts | 209° |
| 2026-04-26 15:12 | -33.98073 | 25.62185 | 218 ft | 9 kts | 227° |
| 2026-04-26 15:12 | -33.98141 | 25.62097 | 238 ft | 24 kts | 230° |
| 2026-04-26 15:12 | -33.98209 | 25.61812 | 254 ft | 54 kts | 248° |
| 2026-04-26 15:13 | -33.98454 | 25.61301 | 314 ft | 85 kts | 236° |
| 2026-04-26 15:13 | -33.98787 | 25.60621 | 348 ft | 98 kts | 237° |
| 2026-04-26 15:13 | -33.98774 | 25.59932 | 492 ft | 114 kts | 326° |
| 2026-04-26 15:13 | -33.97923 | 25.60185 | 528 ft | 128 kts | 18° |
| 2026-04-26 15:14 | -33.97139 | 25.60459 | 535 ft | 102 kts | 1° |
| 2026-04-26 15:14 | -33.96509 | 25.60346 | 568 ft | 87 kts | 295° |
| 2026-04-26 15:14 | -33.96662 | 25.59753 | 418 ft | 89 kts | 226° |
| 2026-04-26 15:14 | -33.96992 | 25.60051 | 477 ft | 99 kts | 91° |
| 2026-04-26 15:15 | -33.96957 | 25.60882 | 574 ft | 94 kts | 85° |
| 2026-04-26 15:15 | -33.96568 | 25.61297 | 596 ft | 83 kts | 320° |
| 2026-04-26 15:15 | -33.96619 | 25.60832 | 507 ft | 66 kts | 198° |
| 2026-04-26 15:15 | -33.96637 | 25.61065 | 411 ft | 23 kts | 270° |
| 2026-04-26 15:16 | -33.96635 | 25.61022 | 278 ft | 4 kts | 264° |
| 2026-04-26 15:16 | -33.96639 | 25.61013 | 263 ft | 0 kts | 267° |
| 2026-04-26 15:18 | -33.96638 | 25.61012 | 268 ft | 1 kts | 273° |
| 2026-04-26 15:19 | -33.96621 | 25.61001 | 302 ft | 2 kts | 257° |
| 2026-04-26 15:19 | -33.96783 | 25.60959 | 398 ft | 56 kts | 184° |
| 2026-04-26 15:19 | -33.96980 | 25.61628 | 179 ft | 120 kts | 66° |
| 2026-04-26 15:19 | -33.96546 | 25.62482 | 192 ft | 111 kts | 57° |
| 2026-04-26 15:20 | -33.96745 | 25.62712 | 430 ft | 49 kts | 244° |
| 2026-04-26 15:20 | -33.97065 | 25.62526 | 392 ft | 74 kts | 172° |
| 2026-04-26 15:20 | -33.97527 | 25.62634 | 400 ft | 63 kts | 214° |
| 2026-04-26 15:20 | -33.97864 | 25.62414 | 436 ft | 45 kts | 219° |
| 2026-04-26 15:21 | -33.98032 | 25.62260 | 273 ft | 10 kts | 223° |
| 2026-04-26 15:21 | -33.98039 | 25.62250 | 191 ft | 0 kts | 228° |
| 2026-04-26 15:21 | -33.98040 | 25.62241 | 215 ft | 3 kts | 233° |
| 2026-04-26 15:21 | -33.98086 | 25.62181 | 234 ft | 19 kts | 231° |
| 2026-04-26 15:22 | -33.98163 | 25.62007 | 274 ft | 32 kts | 243° |
| 2026-04-26 15:22 | -33.98390 | 25.61899 | 271 ft | 45 kts | 204° |
| 2026-04-26 15:22 | -33.98593 | 25.61495 | 235 ft | 72 kts | 236° |
| 2026-04-26 15:22 | -33.98897 | 25.60891 | 295 ft | 93 kts | 236° |
| 2026-04-26 15:23 | -33.99262 | 25.60207 | 361 ft | 100 kts | 236° |
| 2026-04-26 15:23 | -33.99812 | 25.59755 | 443 ft | 109 kts | 180° |
| 2026-04-26 15:23 | -34.00574 | 25.60037 | 433 ft | 113 kts | 168° |
| 2026-04-26 15:23 | -34.01332 | 25.60320 | 471 ft | 114 kts | 164° |
| 2026-04-26 15:24 | -34.01762 | 25.60661 | 1072 ft | 7 kts | 221° |
| 2026-04-26 15:24 | -34.01547 | 25.60573 | 1336 ft | 52 kts | 300° |
| 2026-04-26 15:24 | -34.01403 | 25.60194 | 1691 ft | 44 kts | 263° |
| 2026-04-26 15:24 | -34.01385 | 25.59950 | 1875 ft | 10 kts | 261° |
| 2026-04-26 15:25 | -34.01357 | 25.59911 | 1723 ft | 6 kts | 283° |
| 2026-04-26 15:25 | -34.01340 | 25.59889 | 1535 ft | 6 kts | 299° |
| 2026-04-26 15:25 | -34.01298 | 25.59859 | 1323 ft | 4 kts | 345° |
| 2026-04-26 15:25 | -34.01377 | 25.59816 | 1472 ft | 38 kts | 168° |
| 2026-04-26 15:26 | -34.01552 | 25.59888 | 1672 ft | 6 kts | 164° |
| 2026-04-26 15:26 | -34.01789 | 25.60063 | 1460 ft | 84 kts | 134° |
| 2026-04-26 15:26 | -34.01840 | 25.60968 | 891 ft | 129 kts | 65° |
| 2026-04-26 15:26 | -34.01363 | 25.61921 | 591 ft | 135 kts | 52° |
| 2026-04-26 15:27 | -34.00719 | 25.62738 | 521 ft | 136 kts | 29° |
| 2026-04-26 15:27 | -33.99871 | 25.62902 | 474 ft | 123 kts | 322° |
| 2026-04-26 15:27 | -33.99235 | 25.62322 | 410 ft | 103 kts | 322° |
| 2026-04-26 15:27 | -33.98762 | 25.61944 | 314 ft | 65 kts | 310° |
| 2026-04-26 15:28 | -33.98445 | 25.61698 | 261 ft | 42 kts | 301° |
| 2026-04-26 15:28 | -33.98292 | 25.61678 | 229 ft | 19 kts | 128° |
| 2026-04-26 15:28 | -33.98215 | 25.61839 | 261 ft | 34 kts | 33° |
| 2026-04-26 15:28 | -33.98178 | 25.62060 | 276 ft | 30 kts | 101° |
| 2026-04-26 15:29 | -33.98047 | 25.62304 | 285 ft | 31 kts | 342° |
| 2026-04-26 15:29 | -33.98005 | 25.62265 | 251 ft | 9 kts | 234° |
| 2026-04-26 15:29 | -33.98017 | 25.62234 | 198 ft | 0 kts | 224° |